createdAt,value
2018-04-20T00:02:02.037Z,6.87
2018-04-20T00:04:29.499Z,6.90
2018-04-20T00:06:57.013Z,6.60
2018-04-20T00:09:24.513Z,7.57
2018-04-20T00:11:51.981Z,8.00
2018-04-20T00:14:19.544Z,7.37
2018-04-20T00:16:47.047Z,7.40
2018-04-20T00:19:14.532Z,7.97
2018-04-20T00:21:41.989Z,7.63
2018-04-20T00:24:09.486Z,8.40
2018-04-20T00:26:37.733Z,8.30
2018-04-20T00:29:05.197Z,7.80
2018-04-20T00:31:32.669Z,8.10
2018-04-20T00:34:01.017Z,8.37
2018-04-20T00:36:28.483Z,8.70
2018-04-20T00:38:55.945Z,8.43
2018-04-20T00:41:23.409Z,8.40
2018-04-20T00:43:50.888Z,8.97
2018-04-20T00:46:18.770Z,8.97
2018-04-20T00:48:46.232Z,8.90
2018-04-20T00:51:13.707Z,8.67
2018-04-20T00:53:53.033Z,7.93
2018-04-20T00:56:20.625Z,8.47
2018-04-20T00:58:48.081Z,8.20
2018-04-20T01:01:15.536Z,8.13
2018-04-20T01:03:43.016Z,8.00
2018-04-20T01:06:11.300Z,8.63
2018-04-20T01:08:39.541Z,8.90
2018-04-20T01:11:06.994Z,8.80
2018-04-20T01:13:34.463Z,9.80
2018-04-20T01:16:01.942Z,9.43
2018-04-20T01:18:30.158Z,9.80
2018-04-20T01:20:57.640Z,9.07
2018-04-20T01:23:25.100Z,9.60
2018-04-20T01:25:53.343Z,10.40
2018-04-20T01:28:20.800Z,9.83
2018-04-20T01:30:48.275Z,9.10
2018-04-20T01:33:15.744Z,10.07
2018-04-20T01:35:43.292Z,11.00
2018-04-20T01:38:10.791Z,9.50
2018-04-20T01:40:39.020Z,9.73
2018-04-20T01:43:06.491Z,10.40
2018-04-20T01:45:33.964Z,11.07
2018-04-20T01:48:02.202Z,9.87
2018-04-20T01:50:29.674Z,10.30
2018-04-20T01:52:57.152Z,10.13
2018-04-20T01:55:25.388Z,10.70
2018-04-20T01:57:52.872Z,12.20
2018-04-20T02:00:20.421Z,9.77
2018-04-20T02:02:47.885Z,9.77
2018-04-20T02:05:15.363Z,10.53
2018-04-20T02:07:43.609Z,9.13
2018-04-20T02:10:11.070Z,9.33
2018-04-20T02:12:38.536Z,8.60
2018-04-20T02:15:06.087Z,8.60
2018-04-20T02:17:33.644Z,8.60
2018-04-20T02:20:02.621Z,9.00
2018-04-20T02:22:30.130Z,8.30
2018-04-20T02:24:58.360Z,8.80
2018-04-20T02:27:25.829Z,8.07
2018-04-20T02:29:53.336Z,8.17
2018-04-20T02:32:20.894Z,8.17
2018-04-20T02:34:48.455Z,8.33
2018-04-20T02:37:15.928Z,9.00
2018-04-20T02:39:43.396Z,8.37
2018-04-20T02:42:10.852Z,7.67
2018-04-20T02:44:38.333Z,8.47
2018-04-20T02:47:05.796Z,7.90
2018-04-20T02:49:34.045Z,7.63
2018-04-20T02:52:01.514Z,7.23
2018-04-20T02:54:29.743Z,7.73
2018-04-20T02:56:57.230Z,6.63
2018-04-20T02:59:24.688Z,7.93
2018-04-20T03:01:52.149Z,7.87
2018-04-20T03:04:19.625Z,7.10
2018-04-20T03:06:47.855Z,7.17
2018-04-20T03:09:15.310Z,7.33
2018-04-20T03:11:42.797Z,7.20
2018-04-20T03:14:10.256Z,7.40
2018-04-20T03:16:37.718Z,8.13
2018-04-20T03:19:05.216Z,7.63
2018-04-20T03:21:32.682Z,7.63
2018-04-20T03:24:00.148Z,7.40
2018-04-20T03:26:27.634Z,8.10
2018-04-20T03:28:55.094Z,8.47
2018-04-20T03:31:22.551Z,8.50
2018-04-20T03:33:50.034Z,8.00
2018-04-20T03:36:18.750Z,7.73
2018-04-20T03:38:46.221Z,8.13
2018-04-20T03:41:13.691Z,8.43
2018-04-20T03:43:41.150Z,9.80
2018-04-20T03:46:08.609Z,7.70
2018-04-20T03:48:36.093Z,8.60
2018-04-20T03:51:04.329Z,8.53
2018-04-20T03:53:31.784Z,8.70
2018-04-20T03:55:59.265Z,9.13
2018-04-20T03:58:26.844Z,9.23
2018-04-20T04:00:55.071Z,8.63
2018-04-20T04:03:22.549Z,8.93
2018-04-20T04:05:50.069Z,8.70
2018-04-20T04:08:17.549Z,9.33
2018-04-20T04:10:45.064Z,9.20
2018-04-20T04:13:12.485Z,8.30
2018-04-20T04:15:39.965Z,8.97
2018-04-20T04:18:20.048Z,9.00
2018-04-20T04:20:52.281Z,8.00
2018-04-20T04:23:32.592Z,9.30
2018-04-20T04:26:12.041Z,9.47
2018-04-20T04:28:39.520Z,9.67
2018-04-20T04:31:06.986Z,10.27
2018-04-20T04:33:34.460Z,10.83
2018-04-20T04:36:01.974Z,9.50
2018-04-20T04:38:29.444Z,8.97
2018-04-20T04:40:56.911Z,10.13
2018-04-20T04:43:24.406Z,9.37
2018-04-20T04:45:51.872Z,9.73
2018-04-20T04:48:19.339Z,11.00
2018-04-20T04:50:46.812Z,10.73
2018-04-20T04:53:14.286Z,9.23
2018-04-20T04:55:41.793Z,9.20
2018-04-20T04:58:09.261Z,11.07
2018-04-20T05:00:36.726Z,10.17
2018-04-20T05:03:04.202Z,9.23
2018-04-20T05:05:31.671Z,9.20
2018-04-20T05:07:59.133Z,10.00
2018-04-20T05:10:26.601Z,10.60
2018-04-20T05:12:54.828Z,10.87
2018-04-20T05:15:22.312Z,9.87
2018-04-20T05:17:49.784Z,10.87
2018-04-20T05:20:18.065Z,11.27
2018-04-20T05:22:46.288Z,10.13
2018-04-20T05:25:13.752Z,9.10
2018-04-20T05:27:41.233Z,9.30
2018-04-20T05:30:08.699Z,10.87
2018-04-20T05:32:36.164Z,9.10
2018-04-20T05:35:04.400Z,9.33
2018-04-20T05:37:31.858Z,9.80
2018-04-20T05:39:59.311Z,8.90
2018-04-20T05:42:26.796Z,9.27
2018-04-20T05:44:55.030Z,8.60
2018-04-20T05:47:22.533Z,9.03
2018-04-20T05:49:50.005Z,10.20
2018-04-20T05:52:18.228Z,9.47
2018-04-20T05:54:45.707Z,9.50
2018-04-20T05:57:13.183Z,9.17
2018-04-20T05:59:41.408Z,8.63
2018-04-20T06:02:08.888Z,9.73
2018-04-20T06:04:36.356Z,10.20
2018-04-20T06:07:03.888Z,10.13
2018-04-20T06:09:32.088Z,11.73
2018-04-20T06:11:59.553Z,9.93
2018-04-20T06:14:27.800Z,10.13
2018-04-20T06:16:55.300Z,10.73
2018-04-20T06:19:23.524Z,10.40
2018-04-20T06:21:50.997Z,9.63
2018-04-20T06:24:18.461Z,9.63
2018-04-20T06:26:45.989Z,9.17
2018-04-20T06:29:14.193Z,9.23
2018-04-20T06:31:41.648Z,9.00
2018-04-20T06:34:09.121Z,9.20
2018-04-20T06:36:37.361Z,9.10
2018-04-20T06:39:04.825Z,9.33
2018-04-20T06:41:32.281Z,9.60
2018-04-20T06:43:59.766Z,8.20
2018-04-20T06:46:28.001Z,8.83
2018-04-20T06:48:55.480Z,8.60
2018-04-20T06:51:22.940Z,8.77
2018-04-20T06:53:50.400Z,8.73
2018-04-20T06:56:19.081Z,8.20
2018-04-20T06:58:46.558Z,8.80
2018-04-20T07:01:14.780Z,9.07
2018-04-20T07:03:42.284Z,9.37
2018-04-20T07:06:10.516Z,8.40
2018-04-20T07:08:38.005Z,10.10
2018-04-20T07:11:05.490Z,9.63
2018-04-20T07:13:32.961Z,10.17
2018-04-20T07:16:00.456Z,9.93
2018-04-20T07:18:27.917Z,10.10
2018-04-20T07:20:55.407Z,9.73
2018-04-20T07:23:22.880Z,10.53
2018-04-20T07:25:50.340Z,9.20
2018-04-20T07:28:17.823Z,9.90
2018-04-20T07:30:45.274Z,10.00
2018-04-20T07:33:12.749Z,9.70
2018-04-20T07:35:40.256Z,10.70
2018-04-20T07:38:07.724Z,10.43
2018-04-20T07:40:35.293Z,10.47
2018-04-20T07:43:02.777Z,11.37
2018-04-20T07:45:30.236Z,10.67
2018-04-20T07:47:57.701Z,11.37
2018-04-20T07:50:25.176Z,11.97
2018-04-20T07:52:53.405Z,10.90
2018-04-20T07:55:20.885Z,11.23
2018-04-20T07:57:48.345Z,11.00
2018-04-20T08:00:15.828Z,11.60
2018-04-20T08:02:44.056Z,11.30
2018-04-20T08:05:11.546Z,11.07
2018-04-20T08:07:39.804Z,11.40
2018-04-20T08:10:07.269Z,12.33
2018-04-20T08:12:34.737Z,10.73
2018-04-20T08:15:02.225Z,11.53
2018-04-20T08:17:29.696Z,11.30
2018-04-20T08:19:57.247Z,11.70
2018-04-20T08:22:24.750Z,10.80
2018-04-20T08:24:52.213Z,11.57
2018-04-20T08:27:19.693Z,11.13
2018-04-20T08:29:47.950Z,11.53
2018-04-20T08:32:16.174Z,10.77
2018-04-20T08:34:43.636Z,10.70
2018-04-20T08:37:11.124Z,10.77
2018-04-20T08:39:38.588Z,11.93
2018-04-20T08:42:06.112Z,10.57
2018-04-20T08:44:34.313Z,10.40
2018-04-20T08:47:01.870Z,10.10
2018-04-20T08:49:29.335Z,9.90
2018-04-20T08:51:56.831Z,9.70
2018-04-20T08:54:24.399Z,11.30
2018-04-20T08:56:51.857Z,10.00
2018-04-20T08:59:19.349Z,11.70
2018-04-20T09:01:46.870Z,11.20
2018-04-20T09:04:14.434Z,10.60
2018-04-20T09:06:41.936Z,10.97
2018-04-20T09:09:09.403Z,12.20
2018-04-20T09:11:37.624Z,11.73
2018-04-20T09:14:05.123Z,12.40
2018-04-20T09:16:32.593Z,12.63
2018-04-20T09:19:00.824Z,11.30
2018-04-20T09:21:28.327Z,11.30
2018-04-20T09:23:56.551Z,12.13
2018-04-20T09:26:24.029Z,12.23
2018-04-20T09:28:51.509Z,12.43
2018-04-20T09:31:19.741Z,12.60
2018-04-20T09:33:47.244Z,12.07
2018-04-20T09:36:15.473Z,12.30
2018-04-20T09:38:42.963Z,12.93
2018-04-20T09:41:10.465Z,12.63
2018-04-20T09:43:37.938Z,12.77
2018-04-20T09:46:05.421Z,11.47
2018-04-20T09:48:32.880Z,12.13
2018-04-20T09:51:00.348Z,12.60
2018-04-20T09:53:27.856Z,11.77
2018-04-20T09:55:55.332Z,13.10
2018-04-20T09:58:22.826Z,13.00
2018-04-20T10:00:50.295Z,11.53
2018-04-20T10:03:18.529Z,11.63
2018-04-20T10:05:45.995Z,11.97
2018-04-20T10:08:13.477Z,11.37
2018-04-20T10:10:41.700Z,11.57
2018-04-20T10:13:09.169Z,13.43
2018-04-20T10:15:36.648Z,12.40
2018-04-20T10:18:04.113Z,12.40
2018-04-20T10:20:32.341Z,12.03
2018-04-20T10:22:59.940Z,11.43
2018-04-20T10:25:27.405Z,11.50
2018-04-20T10:27:54.903Z,11.60
2018-04-20T10:30:22.461Z,12.43
2018-04-20T10:32:49.925Z,10.37
2018-04-20T10:35:17.385Z,10.27
2018-04-20T10:37:44.877Z,10.50
2018-04-20T10:40:12.349Z,10.27
2018-04-20T10:42:40.577Z,10.50
2018-04-20T10:45:08.060Z,8.80
2018-04-20T10:47:35.530Z,9.00
2018-04-20T10:50:02.985Z,8.97
2018-04-20T10:52:30.469Z,7.60
2018-04-20T10:54:57.926Z,7.43
2018-04-20T10:57:25.404Z,8.87
2018-04-20T10:59:52.884Z,7.90
2018-04-20T11:02:20.344Z,9.07
2018-04-20T11:04:47.873Z,6.70
2018-04-20T11:07:15.329Z,8.83
2018-04-20T11:09:42.797Z,9.10
2018-04-20T11:12:10.281Z,7.67
2018-04-20T11:14:37.801Z,8.97
2018-04-20T11:17:05.274Z,10.60
2018-04-20T11:19:32.740Z,9.63
2018-04-20T11:22:00.208Z,8.60
2018-04-20T11:24:27.668Z,10.47
2018-04-20T11:26:55.159Z,9.57
2018-04-20T11:29:23.382Z,7.57
2018-04-20T11:31:50.842Z,9.00
2018-04-20T11:34:18.326Z,7.60
2018-04-20T11:36:45.789Z,6.93
2018-04-20T11:39:14.021Z,7.63
2018-04-20T11:41:41.515Z,7.20
2018-04-20T11:44:09.743Z,6.80
2018-04-20T11:46:37.195Z,7.37
2018-04-20T11:49:04.699Z,6.50
2018-04-20T11:51:32.210Z,7.33
2018-04-20T11:53:59.692Z,6.77
2018-04-20T11:56:27.169Z,8.70
2018-04-20T11:58:54.641Z,7.70
2018-04-20T12:01:22.869Z,7.93
2018-04-20T12:03:50.414Z,7.30
2018-04-20T12:06:18.069Z,7.10
2018-04-20T12:08:45.571Z,5.03
2018-04-20T12:11:13.046Z,3.90
2018-04-20T12:13:41.288Z,3.70
2018-04-20T12:16:08.741Z,3.83
2018-04-20T12:18:36.230Z,3.80
2018-04-20T12:21:04.473Z,4.10
2018-04-20T12:23:31.937Z,3.67
2018-04-20T12:25:59.434Z,5.07
2018-04-20T12:28:27.662Z,4.17
2018-04-20T12:30:55.114Z,4.20
2018-04-20T12:33:22.596Z,4.00
2018-04-20T12:35:50.052Z,4.30
2018-04-20T12:38:17.516Z,4.03
2018-04-20T12:40:45.772Z,4.30
2018-04-20T12:43:13.232Z,3.93
2018-04-20T12:45:40.692Z,3.70
2018-04-20T12:48:08.164Z,4.27
2018-04-20T12:50:36.409Z,5.20
2018-04-20T12:53:03.894Z,4.73
2018-04-20T12:55:32.140Z,4.00
2018-04-20T12:58:00.532Z,4.83
2018-04-20T13:00:28.566Z,5.00
2018-04-20T13:02:56.100Z,5.30
2018-04-20T13:05:23.557Z,5.10
2018-04-20T13:07:51.130Z,5.00
2018-04-20T13:10:18.606Z,4.67
2018-04-20T13:12:46.073Z,3.90
2018-04-20T13:15:13.544Z,4.70
2018-04-20T13:17:41.017Z,3.97
2018-04-20T13:20:08.572Z,3.47
2018-04-20T13:22:36.037Z,4.30
2018-04-20T13:25:04.292Z,3.60
2018-04-20T13:27:32.029Z,4.17
2018-04-20T13:29:59.477Z,3.43
2018-04-20T13:32:26.932Z,3.93
2018-04-20T13:34:54.427Z,4.77
2018-04-20T13:37:21.893Z,3.80
2018-04-20T13:39:50.132Z,4.00
2018-04-20T13:42:17.596Z,4.03
2018-04-20T13:44:45.058Z,3.80
2018-04-20T13:47:12.529Z,4.07
2018-04-20T13:49:39.989Z,4.40
2018-04-20T13:52:07.489Z,4.57
2018-04-20T13:54:35.050Z,4.40
2018-04-20T13:57:02.510Z,4.10
2018-04-20T13:59:29.989Z,4.23
2018-04-20T14:01:57.452Z,4.23
2018-04-20T14:04:24.936Z,4.17
2018-04-20T14:06:53.179Z,4.10
2018-04-20T14:09:20.637Z,4.83
2018-04-20T14:11:48.121Z,4.00
2018-04-20T14:14:15.585Z,4.30
2018-04-20T14:16:43.841Z,4.20
2018-04-20T14:19:11.320Z,4.60
2018-04-20T14:21:39.579Z,4.00
2018-04-20T14:24:08.550Z,4.60
2018-04-20T14:26:36.035Z,4.40
2018-04-20T14:29:03.492Z,4.23
2018-04-20T14:31:31.749Z,5.17
2018-04-20T14:33:59.213Z,4.20
2018-04-20T14:36:26.676Z,3.97
2018-04-20T14:38:54.937Z,3.90
2018-04-20T14:41:22.400Z,3.93
2018-04-20T14:43:49.995Z,3.10
2018-04-20T14:46:17.365Z,4.40
2018-04-20T14:48:44.824Z,4.30
2018-04-20T14:51:12.309Z,3.63
2018-04-20T14:53:39.774Z,4.20
2018-04-20T14:56:07.247Z,4.07
2018-04-20T14:58:34.712Z,3.90
2018-04-20T15:01:02.937Z,3.90
2018-04-20T15:03:30.432Z,3.47
2018-04-20T15:05:57.897Z,3.60
2018-04-20T15:08:26.153Z,3.87
2018-04-20T15:10:53.622Z,3.90
2018-04-20T15:13:21.093Z,3.90
2018-04-20T15:15:49.324Z,3.57
2018-04-20T15:18:16.776Z,4.00
2018-04-20T15:20:44.303Z,3.30
2018-04-20T15:23:13.224Z,4.00
2018-04-20T15:25:40.699Z,4.07
2018-04-20T15:28:08.183Z,3.77
2018-04-20T15:30:36.444Z,3.90
2018-04-20T15:33:03.897Z,3.90
2018-04-20T15:35:37.551Z,3.83
2018-04-20T15:38:09.213Z,3.70
2018-04-20T15:40:36.674Z,4.13
2018-04-20T15:43:04.163Z,3.63
2018-04-20T15:45:31.629Z,4.40
2018-04-20T15:47:59.085Z,3.30
2018-04-20T15:50:26.590Z,4.10
2018-04-20T15:52:54.089Z,3.80
2018-04-20T15:55:21.705Z,4.17
2018-04-20T15:57:49.204Z,3.77
2018-04-20T16:00:16.667Z,3.90
2018-04-20T16:02:44.148Z,4.30
2018-04-20T16:05:12.388Z,4.23
2018-04-20T16:07:39.872Z,3.90
2018-04-20T16:10:08.112Z,4.40
2018-04-20T16:12:35.577Z,4.00
2018-04-20T16:15:03.069Z,4.00
2018-04-20T16:17:31.307Z,4.67
2018-04-20T16:19:58.789Z,3.80
2018-04-20T16:22:27.021Z,4.87
2018-04-20T16:24:54.489Z,5.23
2018-04-20T16:27:21.957Z,4.37
2018-04-20T16:29:49.422Z,4.37
2018-04-20T16:32:17.850Z,3.77
2018-04-20T16:34:45.408Z,4.27
2018-04-20T16:37:12.897Z,4.40
2018-04-20T16:39:40.531Z,4.37
2018-04-20T16:42:07.995Z,4.60
2018-04-20T16:44:35.485Z,4.50
2018-04-20T16:47:02.957Z,5.67
2018-04-20T16:49:31.217Z,4.40
2018-04-20T16:51:58.681Z,5.20
2018-04-20T16:54:26.232Z,4.53
2018-04-20T16:56:53.741Z,4.77
2018-04-20T16:59:21.201Z,5.30
2018-04-20T17:01:48.676Z,4.87
2018-04-20T17:04:16.170Z,4.23
2018-04-20T17:06:43.633Z,4.73
2018-04-20T17:09:11.866Z,4.90
2018-04-20T17:11:39.348Z,4.20
2018-04-20T17:14:06.812Z,4.40
2018-04-20T17:16:34.285Z,3.90
2018-04-20T17:19:02.523Z,4.03
2018-04-20T17:21:29.984Z,4.10
2018-04-20T17:23:57.460Z,4.73
2018-04-20T17:26:25.008Z,4.00
2018-04-20T17:28:52.477Z,5.00
2018-04-20T17:31:20.701Z,4.50
2018-04-20T17:33:48.184Z,4.13
2018-04-20T17:36:15.653Z,4.33
2018-04-20T17:38:43.117Z,3.97
2018-04-20T17:41:11.401Z,8.13
2018-04-20T17:43:39.633Z,7.40
2018-04-20T17:46:07.121Z,9.37
2018-04-20T17:48:34.595Z,10.30
2018-04-20T17:51:02.850Z,10.73
2018-04-20T17:53:30.353Z,11.00
2018-04-20T17:55:57.829Z,11.77
2018-04-20T17:58:25.375Z,11.53
2018-04-20T18:00:52.871Z,12.30
2018-04-20T18:03:20.336Z,11.30
2018-04-20T18:05:47.840Z,12.70
2018-04-20T18:08:15.309Z,11.57
2018-04-20T18:10:42.782Z,12.50
2018-04-20T18:13:10.245Z,11.53
2018-04-20T18:15:37.741Z,12.20
2018-04-20T18:18:05.988Z,11.37
2018-04-20T18:20:33.458Z,12.83
2018-04-20T18:23:01.057Z,12.40
2018-04-20T18:25:28.509Z,13.83
2018-04-20T18:27:55.988Z,13.63
2018-04-20T18:30:23.498Z,13.70
2018-04-20T18:32:51.721Z,15.30
2018-04-20T18:35:19.196Z,16.57
2018-04-20T18:37:46.684Z,16.90
2018-04-20T18:40:14.916Z,17.07
2018-04-20T18:42:42.421Z,15.87
2018-04-20T18:45:09.877Z,15.77
2018-04-20T18:47:38.120Z,15.80
2018-04-20T18:50:05.659Z,15.03
2018-04-20T18:52:33.897Z,16.33
2018-04-20T18:55:01.395Z,17.07
2018-04-20T18:57:28.878Z,17.30
2018-04-20T18:59:57.136Z,16.70
2018-04-20T19:02:24.594Z,16.37
2018-04-20T19:04:52.060Z,16.53
2018-04-20T19:07:20.329Z,16.17
2018-04-20T19:09:47.785Z,15.70
2018-04-20T19:12:15.273Z,16.23
2018-04-20T19:14:43.521Z,16.77
2018-04-20T19:17:11.002Z,16.87
2018-04-20T19:19:39.250Z,17.37
2018-04-20T19:22:06.747Z,17.70
2018-04-20T19:24:34.210Z,19.90
2018-04-20T19:27:01.681Z,18.90
2018-04-20T19:29:29.169Z,18.40
2018-04-20T19:31:56.637Z,19.17
2018-04-20T19:34:24.126Z,19.73
2018-04-20T19:36:52.393Z,19.90
2018-04-20T19:39:20.621Z,18.87
2018-04-20T19:41:48.150Z,20.10
2018-04-20T19:44:15.611Z,20.33
2018-04-20T19:46:43.080Z,19.37
2018-04-20T19:49:10.542Z,19.93
2018-04-20T19:51:38.029Z,20.20
2018-04-20T19:54:05.703Z,18.98
2018-04-20T19:56:33.944Z,19.93
2018-04-20T19:59:01.438Z,20.83
2018-04-20T20:01:29.672Z,19.60
2018-04-20T20:03:57.136Z,22.30
2018-04-20T20:06:24.633Z,21.90
2018-04-20T20:08:52.870Z,28.97
2018-04-20T20:11:20.333Z,29.00
2018-04-20T20:13:48.622Z,27.07
2018-04-20T20:16:16.087Z,23.27
2018-04-20T20:18:44.330Z,20.23
2018-04-20T20:21:11.817Z,20.10
2018-04-20T20:23:40.070Z,19.20
2018-04-20T20:26:07.537Z,19.07
2018-04-20T20:28:35.015Z,19.77
2018-04-20T20:31:03.281Z,19.47
2018-04-20T20:33:31.514Z,18.17
2018-04-20T20:35:58.986Z,17.30
2018-04-20T20:38:26.491Z,17.60
2018-04-20T20:40:54.713Z,17.40
2018-04-20T20:43:22.207Z,17.37
2018-04-20T20:45:50.458Z,17.27
2018-04-20T20:48:17.929Z,16.23
2018-04-20T20:50:45.467Z,16.83
2018-04-20T20:53:12.989Z,16.43
2018-04-20T20:55:40.465Z,17.00
2018-04-20T20:58:07.945Z,16.80
2018-04-20T21:00:35.437Z,15.67
2018-04-20T21:03:02.912Z,17.00
2018-04-20T21:05:30.376Z,18.33
2018-04-20T21:07:57.882Z,19.33
2018-04-20T21:10:25.354Z,18.83
2018-04-20T21:12:53.588Z,18.40
2018-04-20T21:15:21.076Z,18.77
2018-04-20T21:17:48.546Z,17.97
2018-04-20T21:20:16.029Z,17.77
2018-04-20T21:22:43.518Z,18.40
2018-04-20T21:25:10.985Z,18.27
2018-04-20T21:27:38.505Z,19.20
2018-04-20T21:30:05.992Z,17.67
2018-04-20T21:32:33.464Z,18.67
2018-04-20T21:35:00.935Z,18.77
2018-04-20T21:37:29.189Z,19.57
2018-04-20T21:39:56.676Z,19.50
2018-04-20T21:42:24.946Z,20.17
2018-04-20T21:44:52.454Z,21.27
2018-04-20T21:47:19.930Z,19.57
2018-04-20T21:49:47.389Z,18.70
2018-04-20T21:52:14.891Z,20.37
2018-04-20T21:54:42.357Z,19.90
2018-04-20T21:57:09.829Z,21.00
2018-04-20T21:59:37.318Z,20.40
2018-04-20T22:02:04.798Z,19.70
2018-04-20T22:04:33.029Z,21.00
2018-04-20T22:07:00.516Z,20.20
2018-04-20T22:09:27.975Z,19.30
2018-04-20T22:11:55.786Z,20.77
2018-04-20T22:14:23.280Z,21.23
2018-04-20T22:16:50.767Z,20.67
2018-04-20T22:19:19.013Z,20.43
2018-04-20T22:21:46.505Z,20.70
2018-04-20T22:24:14.740Z,20.17
2018-04-20T22:26:42.193Z,20.10
2018-04-20T22:29:09.673Z,21.50
2018-04-20T22:31:37.133Z,24.03
2018-04-20T22:34:05.388Z,23.10
2018-04-20T22:36:32.856Z,24.43
2018-04-20T22:39:00.410Z,22.77
2018-04-20T22:41:27.915Z,23.10
2018-04-20T22:43:55.384Z,21.10
2018-04-20T22:46:22.842Z,20.83
2018-04-20T22:48:50.326Z,19.97
2018-04-20T22:51:17.801Z,20.60
2018-04-20T22:53:45.290Z,20.10
2018-04-20T22:56:12.772Z,20.73
2018-04-20T22:58:40.274Z,20.90
2018-04-20T23:01:07.741Z,19.73
2018-04-20T23:03:36.068Z,19.97
2018-04-20T23:06:03.533Z,20.33
2018-04-20T23:08:31.004Z,20.70
2018-04-20T23:10:58.496Z,21.73
2018-04-20T23:13:26.722Z,21.90
2018-04-20T23:15:54.186Z,23.47
2018-04-20T23:18:21.662Z,23.03
2018-04-20T23:20:49.142Z,23.30
2018-04-20T23:23:17.409Z,23.70
2018-04-20T23:25:45.662Z,23.97
2018-04-20T23:28:13.128Z,22.80
2018-04-20T23:30:40.617Z,21.40
2018-04-20T23:33:08.085Z,22.93
2018-04-20T23:35:35.557Z,24.17
2018-04-20T23:38:03.029Z,22.67
2018-04-20T23:40:30.495Z,23.37
2018-04-20T23:42:57.961Z,23.07
2018-04-20T23:45:26.242Z,22.10
2018-04-20T23:47:53.720Z,22.30
2018-04-20T23:50:21.953Z,22.77
2018-04-20T23:52:49.428Z,22.13
2018-04-20T23:55:17.658Z,23.23
2018-04-20T23:57:45.125Z,25.03
